Terminal Aerodrome Forecast
Issued by NWS Sterling, VA

Current Version | Previous Version | Graphics & Text | Print | Product List | Glossary Off
Versions: 1 2 3 4 5 6 7 8 9 10 11 12 13 14 15 16

000
FTUS41 KLWX 220700 AAA
TAFMRB
TAF AMD
KMRB 220736Z 2208/2306 00000KT 3SM BR BKN020 BKN050
     FM221200 00000KT 5SM BR BKN025
     FM221300 16004KT P6SM BKN035
     FM221600 16007KT P6SM BKN050
     FM222200 16006KT P6SM SCT050=

USA.gov is the U.S. government's official web portal to all federal, state and local government web resources and services.